Terminal Aerodrome Forecast
Issued by NWS Twin Cities, MN

Home | Current Version | Previous Version | Graphics & Text | Print | Product List | Glossary On
Versions: 1 2 3 4 5 6 7 8 9 10 11 12 13 14 15 16 17
338
FTUS43 KMPX 030520
TAFEAU
TAF
KEAU 030520Z 0306/0406 01014G20KT 2SM -SN BLSN OVC012
     FM031200 35015G25KT 3SM -SN BLSN OVC015
     FM031800 32014G22KT 5SM BLSN OVC015
     FM040000 28005KT P6SM BKN250=

USA.gov is the U.S. government's official web portal to all federal, state and local government web resources and services.